createdAt,value
2018-07-03T00:02:24.712Z,17.60
2018-07-03T00:04:55.271Z,17.50
2018-07-03T00:09:56.456Z,17.40
2018-07-03T00:12:31.617Z,17.30
2018-07-03T00:15:02.118Z,17.30
2018-07-03T00:17:32.834Z,17.20
2018-07-03T00:20:03.759Z,17.30
2018-07-03T00:22:34.435Z,17.30
2018-07-03T00:25:05.874Z,17.30
2018-07-03T00:27:36.445Z,17.20
2018-07-03T00:30:06.967Z,17.20
2018-07-03T00:32:37.584Z,17.20
2018-07-03T00:35:08.206Z,17.10
2018-07-03T00:37:38.781Z,17.10
2018-07-03T00:40:09.404Z,17.10
2018-07-03T00:42:39.964Z,17.00
2018-07-03T00:47:40.622Z,16.80
2018-07-03T00:50:11.168Z,16.70
2018-07-03T00:52:41.958Z,16.70
2018-07-03T00:55:12.655Z,16.60
2018-07-03T00:57:43.228Z,16.50
2018-07-03T01:00:31.366Z,16.40
2018-07-03T01:03:08.616Z,16.40
2018-07-03T01:05:39.741Z,16.30
2018-07-03T01:08:10.533Z,16.30
2018-07-03T01:10:41.104Z,16.30
2018-07-03T01:13:11.638Z,16.20
2018-07-03T01:15:42.941Z,16.20
2018-07-03T01:18:13.566Z,16.20
2018-07-03T01:20:44.120Z,16.20
2018-07-03T01:23:14.787Z,16.20
2018-07-03T01:25:45.305Z,16.10
2018-07-03T01:28:16.004Z,16.10
2018-07-03T01:30:46.632Z,16.10
2018-07-03T01:33:17.369Z,16.00
2018-07-03T01:35:47.941Z,15.90
2018-07-03T01:38:18.683Z,15.90
2018-07-03T01:40:49.272Z,15.90
2018-07-03T01:45:50.130Z,15.80
2018-07-03T01:48:21.359Z,15.80
2018-07-03T01:50:52.152Z,15.80
2018-07-03T01:53:23.344Z,15.80
2018-07-03T01:55:54.033Z,15.70
2018-07-03T01:58:24.501Z,15.70
2018-07-03T02:00:55.108Z,15.70
2018-07-03T02:03:32.445Z,15.60
2018-07-03T02:06:03.023Z,15.60
2018-07-03T02:08:33.680Z,15.60
2018-07-03T02:11:04.454Z,15.60
2018-07-03T02:13:35.164Z,15.60
2018-07-03T02:16:07.492Z,15.50
2018-07-03T02:18:38.166Z,15.50
2018-07-03T02:21:08.969Z,15.50
2018-07-03T02:23:39.762Z,15.40
2018-07-03T02:26:10.304Z,15.30
2018-07-03T02:28:40.916Z,15.30
2018-07-03T02:31:11.415Z,15.30
2018-07-03T02:33:41.933Z,15.30
2018-07-03T02:36:12.487Z,15.30
2018-07-03T02:38:43.320Z,15.30
2018-07-03T02:41:20.483Z,15.20
2018-07-03T02:43:51.140Z,15.20
2018-07-03T02:46:21.879Z,15.20
2018-07-03T02:48:52.910Z,15.20
2018-07-03T02:51:23.525Z,15.10
2018-07-03T02:53:54.042Z,15.10
2018-07-03T02:56:24.621Z,15.00
2018-07-03T02:58:55.281Z,15.00
2018-07-03T03:01:26.169Z,15.00
2018-07-03T03:03:56.594Z,14.90
2018-07-03T03:06:27.337Z,14.90
2018-07-03T03:11:28.204Z,15.00
2018-07-03T03:13:59.047Z,14.90
2018-07-03T03:16:29.685Z,14.90
2018-07-03T03:19:00.189Z,14.90
2018-07-03T03:21:30.815Z,14.90
2018-07-03T03:24:01.568Z,14.90
2018-07-03T03:26:32.083Z,14.80
2018-07-03T03:29:03.431Z,14.80
2018-07-03T03:31:34.100Z,14.90
2018-07-03T03:34:04.616Z,14.80
2018-07-03T03:36:35.310Z,14.80
2018-07-03T03:39:08.740Z,14.80
2018-07-03T03:44:09.559Z,14.80
2018-07-03T03:46:40.073Z,14.80
2018-07-03T03:49:10.644Z,14.80
2018-07-03T03:54:11.698Z,14.90
2018-07-03T03:56:42.266Z,14.90
2018-07-03T03:59:12.960Z,14.90
2018-07-03T04:04:13.792Z,14.90
2018-07-03T04:06:44.545Z,14.90
2018-07-03T04:09:15.482Z,15.00
2018-07-03T04:11:46.218Z,15.00
2018-07-03T04:14:16.644Z,15.00
2018-07-03T04:16:47.262Z,15.00
2018-07-03T04:19:17.861Z,15.00
2018-07-03T04:21:48.503Z,15.00
2018-07-03T04:24:19.112Z,15.00
2018-07-03T04:26:49.601Z,15.00
2018-07-03T04:29:20.278Z,15.10
2018-07-03T04:31:50.859Z,15.00
2018-07-03T04:34:21.609Z,15.10
2018-07-03T04:36:53.243Z,15.10
2018-07-03T04:39:23.898Z,15.10
2018-07-03T04:41:54.610Z,15.10
2018-07-03T04:44:25.153Z,15.10
2018-07-03T04:49:26.319Z,15.20
2018-07-03T04:51:56.908Z,15.20
2018-07-03T04:54:27.428Z,15.20
2018-07-03T04:56:57.946Z,15.20
2018-07-03T04:59:29.567Z,15.30
2018-07-03T05:02:00.148Z,15.30
2018-07-03T05:04:30.696Z,15.40
2018-07-03T05:07:01.357Z,15.50
2018-07-03T05:09:31.915Z,15.50
2018-07-03T05:12:02.559Z,15.60
2018-07-03T05:14:33.510Z,15.70
2018-07-03T05:17:04.180Z,16.00
2018-07-03T05:19:34.839Z,16.10
2018-07-03T05:22:05.756Z,16.30
2018-07-03T05:24:36.339Z,16.70
2018-07-03T05:27:07.225Z,18.50
2018-07-03T05:29:37.904Z,20.80
2018-07-03T05:32:08.590Z,22.60
2018-07-03T05:37:10.024Z,26.30
2018-07-03T05:39:40.575Z,28.00
2018-07-03T05:42:11.224Z,29.60
2018-07-03T05:44:41.779Z,30.60
2018-07-03T05:47:12.741Z,31.60
2018-07-03T05:49:43.395Z,32.40
2018-07-03T05:52:16.279Z,32.90
2018-07-03T05:54:46.839Z,33.50
2018-07-03T05:57:17.511Z,33.70
2018-07-03T05:59:48.688Z,33.80
2018-07-03T06:02:19.201Z,34.40
2018-07-03T06:04:49.789Z,34.90
2018-07-03T06:07:20.380Z,35.00
2018-07-03T06:09:51.082Z,35.10
2018-07-03T06:12:21.997Z,35.50
2018-07-03T06:14:52.789Z,36.30
2018-07-03T06:17:23.407Z,36.70
2018-07-03T06:19:54.941Z,37.80
2018-07-03T06:22:26.434Z,38.10
2018-07-03T06:24:57.080Z,38.60
2018-07-03T06:27:28.000Z,39.00
2018-07-03T06:29:58.552Z,39.30
2018-07-03T06:32:29.226Z,39.60
2018-07-03T06:34:59.980Z,40.50
2018-07-03T06:37:30.865Z,40.30
2018-07-03T06:40:01.603Z,40.80
2018-07-03T06:42:32.279Z,40.50
2018-07-03T06:45:03.319Z,39.90
2018-07-03T06:47:33.965Z,40.10
2018-07-03T06:50:05.244Z,40.00
2018-07-03T06:52:35.717Z,40.50
2018-07-03T06:55:06.830Z,40.40
2018-07-03T06:57:37.632Z,41.00
2018-07-03T07:00:08.638Z,40.70
2018-07-03T07:02:39.292Z,40.50
2018-07-03T07:05:10.664Z,39.10
2018-07-03T07:07:41.117Z,39.10
2018-07-03T07:10:11.655Z,39.40
2018-07-03T07:12:42.269Z,40.30
2018-07-03T07:15:12.874Z,40.40
2018-07-03T07:17:43.644Z,40.70
2018-07-03T07:20:14.441Z,40.90
2018-07-03T07:22:45.056Z,41.10
2018-07-03T07:25:15.709Z,41.10
2018-07-03T07:27:46.177Z,41.50
2018-07-03T07:30:16.929Z,41.70
2018-07-03T07:32:47.689Z,42.10
2018-07-03T07:35:18.526Z,42.10
2018-07-03T07:37:49.201Z,42.50
2018-07-03T07:40:19.890Z,42.20
2018-07-03T07:42:50.719Z,41.50
2018-07-03T07:45:21.365Z,41.10
2018-07-03T07:47:51.993Z,40.40
2018-07-03T07:50:22.564Z,41.00
2018-07-03T07:52:53.100Z,41.50
2018-07-03T07:55:23.884Z,41.90
2018-07-03T07:57:54.939Z,41.90
2018-07-03T08:00:25.666Z,42.00
2018-07-03T08:02:56.383Z,42.60
2018-07-03T08:05:26.958Z,42.80
2018-07-03T08:08:01.915Z,43.10
2018-07-03T08:10:32.603Z,43.30
2018-07-03T08:13:03.245Z,42.80
2018-07-03T08:15:33.704Z,42.90
2018-07-03T08:18:04.335Z,42.60
2018-07-03T08:20:35.772Z,42.40
2018-07-03T08:23:06.488Z,41.60
2018-07-03T08:25:37.148Z,41.60
2018-07-03T08:28:07.842Z,41.60
2018-07-03T08:30:38.303Z,42.10
2018-07-03T08:33:13.021Z,42.80
2018-07-03T08:35:43.677Z,43.00
2018-07-03T08:38:14.381Z,42.80
2018-07-03T08:40:44.965Z,42.20
2018-07-03T08:43:15.784Z,41.20
2018-07-03T08:45:46.308Z,40.90
2018-07-03T08:48:16.970Z,40.80
2018-07-03T08:50:47.581Z,40.60
2018-07-03T08:53:21.082Z,40.70
2018-07-03T08:55:51.673Z,39.90
2018-07-03T08:58:22.130Z,40.10
2018-07-03T09:00:52.862Z,40.40
2018-07-03T09:03:23.336Z,40.80
2018-07-03T09:05:53.982Z,39.80
2018-07-03T09:08:24.629Z,39.70
2018-07-03T09:13:26.314Z,39.90
2018-07-03T09:15:56.918Z,39.70
2018-07-03T09:18:27.591Z,39.80
2018-07-03T09:20:58.262Z,39.90
2018-07-03T09:23:28.960Z,40.40
2018-07-03T09:25:59.772Z,39.90
2018-07-03T09:28:30.583Z,40.00
2018-07-03T09:31:01.124Z,40.80
2018-07-03T09:33:32.121Z,40.80
2018-07-03T09:36:02.846Z,40.40
2018-07-03T09:38:33.372Z,40.30
2018-07-03T09:41:03.993Z,40.50
2018-07-03T09:43:34.668Z,40.20
2018-07-03T09:46:06.043Z,39.90
2018-07-03T09:48:36.819Z,40.40
2018-07-03T09:51:07.467Z,40.70
2018-07-03T09:53:39.236Z,41.00
2018-07-03T09:56:09.790Z,41.50
2018-07-03T09:58:40.285Z,40.80
2018-07-03T10:01:15.891Z,40.20
2018-07-03T10:03:46.661Z,39.40
2018-07-03T10:06:17.368Z,39.40
2018-07-03T10:08:48.480Z,38.70
2018-07-03T10:11:18.921Z,38.40
2018-07-03T10:13:49.487Z,38.80
2018-07-03T10:16:19.997Z,39.00
2018-07-03T10:18:50.558Z,39.00
2018-07-03T10:21:21.247Z,38.90
2018-07-03T10:23:51.859Z,39.50
2018-07-03T10:26:22.414Z,39.70
2018-07-03T10:28:53.030Z,39.50
2018-07-03T10:31:23.990Z,39.80
2018-07-03T10:33:54.478Z,40.50
2018-07-03T10:36:25.148Z,41.40
2018-07-03T10:38:55.696Z,41.80
2018-07-03T10:41:26.202Z,41.20
2018-07-03T10:43:56.736Z,40.00
2018-07-03T10:46:27.508Z,39.40
2018-07-03T10:48:58.290Z,39.50
2018-07-03T10:51:28.839Z,39.20
2018-07-03T10:53:59.399Z,38.30
2018-07-03T10:56:30.108Z,38.10
2018-07-03T10:59:00.706Z,37.10
2018-07-03T11:01:31.357Z,36.70
2018-07-03T11:04:02.132Z,37.10
2018-07-03T11:06:32.693Z,37.00
2018-07-03T11:09:03.966Z,36.70
2018-07-03T11:11:34.453Z,36.30
2018-07-03T11:14:05.342Z,36.30
2018-07-03T11:16:36.060Z,35.30
2018-07-03T11:19:06.827Z,34.10
2018-07-03T11:24:07.761Z,32.20
2018-07-03T11:26:38.469Z,31.70
2018-07-03T11:29:09.282Z,31.30
2018-07-03T11:31:39.849Z,31.30
2018-07-03T11:34:10.379Z,31.10
2018-07-03T11:36:40.920Z,30.90
2018-07-03T11:39:11.644Z,30.70
2018-07-03T11:41:42.168Z,30.90
2018-07-03T11:44:12.851Z,31.10
2018-07-03T11:46:43.465Z,31.00
2018-07-03T11:49:14.067Z,30.90
2018-07-03T11:51:45.238Z,30.70
2018-07-03T11:54:15.955Z,30.70
2018-07-03T11:56:46.653Z,30.60
2018-07-03T11:59:17.151Z,30.50
2018-07-03T12:01:48.159Z,30.30
2018-07-03T12:04:18.784Z,30.20
2018-07-03T12:09:19.585Z,30.70
2018-07-03T12:11:50.126Z,30.90
2018-07-03T12:14:21.696Z,30.90
2018-07-03T12:16:52.441Z,30.80
2018-07-03T12:19:23.129Z,30.60
2018-07-03T12:21:53.743Z,30.60
2018-07-03T12:24:25.340Z,30.70
2018-07-03T12:26:56.154Z,30.80
2018-07-03T12:29:26.866Z,30.80
2018-07-03T12:31:58.021Z,30.70
2018-07-03T12:34:28.693Z,30.50
2018-07-03T12:36:59.472Z,30.50
2018-07-03T12:39:30.134Z,30.50
2018-07-03T12:42:00.961Z,30.50
2018-07-03T12:44:31.456Z,30.70
2018-07-03T12:47:02.108Z,30.60
2018-07-03T12:49:33.521Z,30.60
2018-07-03T12:52:04.169Z,30.60
2018-07-03T12:54:34.908Z,30.60
2018-07-03T12:59:36.889Z,31.00
2018-07-03T13:02:07.661Z,30.80
2018-07-03T13:04:38.486Z,30.70
2018-07-03T13:07:09.073Z,30.90
2018-07-03T13:09:40.468Z,30.80
2018-07-03T13:12:11.008Z,30.90
2018-07-03T13:14:41.681Z,31.20
2018-07-03T13:19:43.108Z,31.10
2018-07-03T13:22:13.780Z,31.10
2018-07-03T13:24:44.279Z,30.90
2018-07-03T13:27:15.093Z,30.80
2018-07-03T13:29:46.058Z,30.60
2018-07-03T13:32:16.748Z,30.50
2018-07-03T13:34:47.285Z,30.80
2018-07-03T13:37:18.145Z,31.00
2018-07-03T13:39:49.002Z,30.80
2018-07-03T13:42:19.673Z,30.90
2018-07-03T13:47:20.540Z,30.90
2018-07-03T13:49:51.264Z,30.80
2018-07-03T13:52:21.771Z,30.90
2018-07-03T13:54:52.621Z,31.00
2018-07-03T13:57:23.438Z,31.20
2018-07-03T13:59:54.064Z,31.30
2018-07-03T14:02:25.250Z,31.40
2018-07-03T14:04:56.001Z,31.40
2018-07-03T14:07:26.841Z,31.70
2018-07-03T14:09:58.224Z,31.70
2018-07-03T14:12:28.895Z,31.70
2018-07-03T14:14:59.949Z,31.60
2018-07-03T14:17:30.472Z,31.60
2018-07-03T14:20:01.423Z,31.70
2018-07-03T14:22:32.025Z,31.80
2018-07-03T14:25:03.003Z,31.90
2018-07-03T14:27:33.547Z,32.00
2018-07-03T14:30:04.410Z,31.90
2018-07-03T14:32:35.201Z,31.90
2018-07-03T14:35:06.377Z,32.00
2018-07-03T14:37:37.404Z,32.10
2018-07-03T14:40:08.065Z,32.00
2018-07-03T14:42:38.849Z,31.80
2018-07-03T14:45:09.899Z,31.70
2018-07-03T14:47:40.542Z,31.50
2018-07-03T14:50:11.503Z,31.40
2018-07-03T14:52:42.106Z,31.40
2018-07-03T14:55:12.830Z,31.50
2018-07-03T14:57:43.556Z,31.30
2018-07-03T15:00:14.293Z,31.40
2018-07-03T15:02:45.077Z,31.50
2018-07-03T15:05:15.898Z,31.20
2018-07-03T15:07:46.800Z,31.10
2018-07-03T15:10:17.754Z,31.40
2018-07-03T15:12:48.368Z,31.50
2018-07-03T15:15:19.597Z,31.60
2018-07-03T15:17:50.197Z,31.50
2018-07-03T15:20:20.991Z,31.60
2018-07-03T15:22:51.736Z,31.60
2018-07-03T15:25:22.508Z,31.70
2018-07-03T15:27:53.303Z,31.70
2018-07-03T15:30:24.023Z,31.70
2018-07-03T15:32:55.073Z,31.70
2018-07-03T15:35:25.779Z,31.70
2018-07-03T15:37:56.536Z,31.80
2018-07-03T15:40:27.629Z,31.90
2018-07-03T15:42:58.373Z,31.80
2018-07-03T15:45:29.059Z,31.80
2018-07-03T15:47:59.608Z,31.70
2018-07-03T15:50:30.341Z,31.50
2018-07-03T15:53:01.227Z,31.40
2018-07-03T15:58:01.896Z,31.20
2018-07-03T16:00:32.536Z,31.30
2018-07-03T16:03:20.009Z,31.40
2018-07-03T16:06:06.325Z,31.30
2018-07-03T16:09:16.360Z,31.10
2018-07-03T16:11:47.113Z,31.10
2018-07-03T16:14:17.768Z,31.10
2018-07-03T16:16:48.481Z,31.20
2018-07-03T16:19:24.361Z,31.20
2018-07-03T16:21:55.828Z,31.10
2018-07-03T16:24:26.843Z,31.10
2018-07-03T16:26:57.508Z,31.00
2018-07-03T16:29:28.103Z,30.80
2018-07-03T16:31:58.851Z,30.60
2018-07-03T16:36:59.600Z,30.60
2018-07-03T16:39:30.334Z,30.40
2018-07-03T16:42:01.092Z,30.40
2018-07-03T16:44:32.423Z,30.40
2018-07-03T16:47:02.938Z,30.40
2018-07-03T16:49:33.440Z,30.50
2018-07-03T16:52:04.331Z,30.60
2018-07-03T16:54:34.966Z,30.60
2018-07-03T16:57:05.727Z,30.70
2018-07-03T16:59:36.444Z,30.80
2018-07-03T17:02:07.122Z,30.90
2018-07-03T17:04:37.684Z,30.80
2018-07-03T17:07:08.369Z,30.80
2018-07-03T17:09:38.876Z,30.80
2018-07-03T17:12:09.501Z,30.80
2018-07-03T17:14:40.840Z,30.30
2018-07-03T17:17:12.172Z,30.10
2018-07-03T17:19:43.140Z,29.70
2018-07-03T17:22:13.829Z,29.30
2018-07-03T17:24:44.556Z,29.10
2018-07-03T17:27:16.111Z,29.00
2018-07-03T17:29:46.836Z,28.80
2018-07-03T17:32:17.683Z,28.60
2018-07-03T17:34:51.204Z,28.20
2018-07-03T17:37:22.229Z,27.90
2018-07-03T17:40:09.386Z,27.70
2018-07-03T17:43:10.811Z,27.50
2018-07-03T17:46:09.184Z,27.40
2018-07-03T17:48:39.736Z,27.20
2018-07-03T17:51:10.620Z,27.10
2018-07-03T17:53:42.069Z,26.80
2018-07-03T17:58:42.838Z,26.30
2018-07-03T18:03:43.896Z,25.90
2018-07-03T18:08:45.060Z,25.50
2018-07-03T18:11:15.705Z,25.40
2018-07-03T18:13:47.165Z,25.40
2018-07-03T18:16:18.528Z,25.40
2018-07-03T18:18:54.207Z,25.30
2018-07-03T18:21:25.370Z,25.40
2018-07-03T18:23:56.025Z,25.40
2018-07-03T18:31:26.831Z,25.20
2018-07-03T18:33:57.644Z,25.20
2018-07-03T18:36:28.382Z,25.10
2018-07-03T18:38:58.899Z,25.00
2018-07-03T18:41:29.648Z,24.90
2018-07-03T18:44:00.296Z,25.00
2018-07-03T18:46:30.896Z,24.90
2018-07-03T18:49:01.643Z,24.80
2018-07-03T18:51:32.533Z,24.80
2018-07-03T18:54:03.196Z,24.60
2018-07-03T18:56:33.738Z,24.50
2018-07-03T18:59:04.923Z,24.50
2018-07-03T19:01:35.479Z,24.40
2018-07-03T19:04:06.797Z,24.30
2018-07-03T19:06:37.426Z,24.00
2018-07-03T19:09:08.986Z,23.80
2018-07-03T19:11:39.578Z,23.80
2018-07-03T19:14:10.301Z,23.80
2018-07-03T19:16:43.968Z,23.50
2018-07-03T19:19:14.734Z,23.50
2018-07-03T19:24:16.088Z,23.50
2018-07-03T19:26:47.043Z,23.50
2018-07-03T19:29:18.191Z,23.40
2018-07-03T19:36:50.905Z,23.20
2018-07-03T19:41:56.656Z,23.20
2018-07-03T19:44:28.773Z,23.00
2018-07-03T19:47:00.811Z,23.00
2018-07-03T19:49:32.085Z,22.90
2018-07-03T19:52:03.616Z,22.80
2018-07-03T19:54:34.415Z,22.70
2018-07-03T19:57:06.051Z,22.60
2018-07-03T19:59:37.001Z,22.50
2018-07-03T20:02:07.899Z,22.40
2018-07-03T20:04:38.610Z,22.30
2018-07-03T20:07:09.558Z,22.20
2018-07-03T20:09:40.417Z,22.20
2018-07-03T20:12:11.404Z,22.10
2018-07-03T20:14:42.364Z,22.00
2018-07-03T20:19:44.458Z,21.90
2018-07-03T20:22:15.625Z,21.80
2018-07-03T20:24:46.962Z,21.60
2018-07-03T20:27:18.063Z,21.50
2018-07-03T20:29:49.512Z,21.50
2018-07-03T20:32:20.385Z,21.40
2018-07-03T20:34:51.707Z,21.40
2018-07-03T20:37:22.355Z,21.30
2018-07-03T20:39:53.217Z,21.30
2018-07-03T20:42:24.532Z,21.30
2018-07-03T20:44:55.167Z,21.30
2018-07-03T20:47:26.221Z,21.20
2018-07-03T20:49:57.072Z,21.10
2018-07-03T20:52:27.817Z,21.00
2018-07-03T20:54:58.718Z,21.00
2018-07-03T20:57:29.510Z,20.90
2018-07-03T21:00:00.602Z,20.80
2018-07-03T21:02:31.342Z,20.80
2018-07-03T21:05:02.276Z,20.80
2018-07-03T21:07:33.029Z,20.70
2018-07-03T21:10:03.571Z,20.60
2018-07-03T21:12:34.386Z,20.60
2018-07-03T21:15:05.182Z,20.60
2018-07-03T21:17:35.957Z,20.60
2018-07-03T21:20:06.679Z,20.50
2018-07-03T21:22:37.643Z,20.50
2018-07-03T21:25:08.341Z,20.50
2018-07-03T21:27:40.181Z,20.40
2018-07-03T21:30:11.202Z,20.40
2018-07-03T21:32:42.609Z,20.30
2018-07-03T21:35:14.247Z,20.30
2018-07-03T21:37:45.055Z,20.20
2018-07-03T21:40:15.741Z,20.10
2018-07-03T21:42:46.480Z,20.20
2018-07-03T21:45:17.175Z,20.20
2018-07-03T21:47:47.983Z,20.20
2018-07-03T21:50:18.650Z,20.10
2018-07-03T21:52:49.469Z,20.10
2018-07-03T21:55:20.244Z,20.00
2018-07-03T21:57:50.800Z,20.00
2018-07-03T22:00:35.608Z,19.90
2018-07-03T22:03:07.578Z,19.90
2018-07-03T22:05:39.347Z,19.80
2018-07-03T22:08:10.173Z,19.80
2018-07-03T22:10:40.814Z,19.80
2018-07-03T22:13:11.413Z,19.80
2018-07-03T22:18:12.255Z,19.80
2018-07-03T22:20:42.986Z,19.80
2018-07-03T22:23:13.507Z,19.90
2018-07-03T22:25:44.121Z,19.90
2018-07-03T22:28:14.626Z,19.90
2018-07-03T22:30:45.328Z,20.00
2018-07-03T22:33:15.896Z,20.00
2018-07-03T22:35:46.462Z,20.10
2018-07-03T22:38:17.102Z,20.10
2018-07-03T22:40:47.889Z,20.10
2018-07-03T22:43:18.354Z,20.10
2018-07-03T22:45:48.959Z,20.10
2018-07-03T22:48:19.437Z,20.10
2018-07-03T22:50:50.187Z,20.00
2018-07-03T22:53:20.702Z,20.00
2018-07-03T22:55:51.356Z,19.90
2018-07-03T22:58:22.090Z,19.90
2018-07-03T23:00:52.726Z,19.90
2018-07-03T23:03:23.370Z,19.90
2018-07-03T23:05:54.079Z,19.90
2018-07-03T23:08:24.711Z,19.90
2018-07-03T23:10:55.450Z,19.80
2018-07-03T23:13:26.377Z,19.80
2018-07-03T23:15:57.036Z,19.90
2018-07-03T23:18:28.162Z,19.90
2018-07-03T23:20:58.777Z,19.90
2018-07-03T23:23:29.419Z,20.00
2018-07-03T23:25:59.973Z,19.90
2018-07-03T23:28:30.837Z,20.00
2018-07-03T23:31:01.388Z,20.00
2018-07-03T23:33:32.017Z,20.10
2018-07-03T23:36:02.596Z,20.00
2018-07-03T23:38:33.196Z,20.10
2018-07-03T23:41:03.771Z,20.10
2018-07-03T23:43:34.391Z,20.10
2018-07-03T23:46:03.125Z,20.10
2018-07-03T23:51:37.632Z,19.90
2018-07-03T23:54:30.973Z,19.90
2018-07-03T23:57:24.364Z,19.90
